Time;durP1;ratioP1;P1;durP2;ratioP2;P2;SDS_P1;SDS_P2;PMS_P1;PMS_P2;Temp;Humidity;BMP_temperature;BMP_pressure;BME280_temperature;BME280_humidity;BME280_pressure;Samples;Min_cycle;Max_cycle;Signal;HPM_P1;HPM_P2
2023/12/19 00:01:52;;;;;;;9.02;4.72;;;;;;;;;;5015619;28;92528;-80
2023/12/19 00:04:19;;;;;;;10.68;5.38;;;;;;;;;;5005092;28;92752;-80
2023/12/19 00:06:46;;;;;;;11.70;4.90;;;;;;;;;;5008451;28;94960;-80
2023/12/19 00:09:13;;;;;;;8.98;5.07;;;;;;;;;;4985213;28;94311;-80
2023/12/19 00:11:39;;;;;;;11.15;5.63;;;;;;;;;;5005930;28;92384;-80
2023/12/19 00:14:07;;;;;;;9.90;4.93;;;;;;;;;;4985863;28;93049;-78
2023/12/19 00:16:33;;;;;;;12.13;5.07;;;;;;;;;;4996208;28;92820;-80
2023/12/19 00:19:00;;;;;;;11.25;5.03;;;;;;;;;;4991412;28;92416;-80
2023/12/19 00:21:27;;;;;;;9.57;4.40;;;;;;;;;;5014706;28;96526;-82
2023/12/19 00:23:53;;;;;;;13.65;4.68;;;;;;;;;;5021224;28;92784;-81
2023/12/19 00:26:21;;;;;;;12.23;5.45;;;;;;;;;;5025422;28;92772;-81
2023/12/19 00:28:48;;;;;;;11.30;5.50;;;;;;;;;;5020045;28;94996;-80
2023/12/19 00:31:20;;;;;;;12.95;5.10;;;;;;;;;;5022898;28;92747;-80
2023/12/19 00:33:47;;;;;;;11.50;5.30;;;;;;;;;;5006791;28;94303;-81
2023/12/19 00:36:21;;;;;;;10.82;5.18;;;;;;;;;;5003510;28;93024;-81
2023/12/19 00:38:48;;;;;;;10.30;4.85;;;;;;;;;;4993442;28;91660;-80
2023/12/19 00:41:15;;;;;;;8.85;4.55;;;;;;;;;;4995561;28;94362;-80
2023/12/19 00:43:43;;;;;;;12.30;5.20;;;;;;;;;;5021869;28;92700;-80
2023/12/19 00:46:10;;;;;;;9.40;4.88;;;;;;;;;;5022128;28;95050;-80
2023/12/19 00:48:37;;;;;;;10.93;5.10;;;;;;;;;;5006924;28;93459;-80
2023/12/19 00:51:10;;;;;;;10.98;5.28;;;;;;;;;;5014408;28;92164;-80
2023/12/19 00:53:38;;;;;;;10.45;5.28;;;;;;;;;;5017009;28;92449;-80
2023/12/19 00:56:11;;;;;;;9.38;5.07;;;;;;;;;;5006719;28;93330;-80
2023/12/19 00:58:38;;;;;;;;;;;;;;;;;;5018447;28;92433;-81
2023/12/19 01:01:05;;;;;;;9.88;4.93;;;;;;;;;;5014402;28;92036;-81
2023/12/19 01:03:33;;;;;;;11.02;5.20;;;;;;;;;;5009184;28;91948;-81
2023/12/19 01:06:00;;;;;;;10.68;5.32;;;;;;;;;;5002513;28;92718;-80
2023/12/19 01:08:27;;;;;;;10.30;4.85;;;;;;;;;;5004877;28;92424;-80
2023/12/19 01:10:54;;;;;;;11.55;5.85;;;;;;;;;;5001413;28;94890;-80
2023/12/19 01:13:21;;;;;;;11.50;5.97;;;;;;;;;;5001968;28;97310;-80
2023/12/19 01:15:48;;;;;;;17.13;6.10;;;;;;;;;;5002580;28;92666;-81
2023/12/19 01:18:14;;;;;;;10.48;5.43;;;;;;;;;;5002134;28;91960;-80
2023/12/19 01:20:41;;;;;;;11.20;6.15;;;;;;;;;;5001405;28;92761;-81
2023/12/19 01:23:08;;;;;;;11.23;5.75;;;;;;;;;;5002437;28;93287;-80
2023/12/19 01:25:37;;;;;;;10.73;5.25;;;;;;;;;;5003198;28;92393;-81
2023/12/19 01:28:04;;;;;;;11.50;5.30;;;;;;;;;;5002195;28;92814;-81
2023/12/19 01:30:37;;;;;;;;;;;;;;;;;;5005898;28;92967;-81
2023/12/19 01:33:04;;;;;;;9.82;5.22;;;;;;;;;;5002809;28;92778;-80
2023/12/19 01:35:30;;;;;;;9.90;5.47;;;;;;;;;;5012158;28;94973;-79
2023/12/19 01:37:57;;;;;;;15.10;5.88;;;;;;;;;;5022747;28;92181;-79
2023/12/19 01:40:25;;;;;;;13.63;5.90;;;;;;;;;;4991288;27;94043;-79
2023/12/19 01:42:52;;;;;;;12.32;5.95;;;;;;;;;;5002025;28;92741;-79
2023/12/19 01:45:19;;;;;;;11.45;5.28;;;;;;;;;;5002208;28;92042;-80
2023/12/19 01:47:45;;;;;;;9.70;4.82;;;;;;;;;;5001166;28;92813;-79
2023/12/19 01:50:13;;;;;;;11.00;5.38;;;;;;;;;;4999798;28;93059;-80
2023/12/19 01:52:45;;;;;;;13.60;5.35;;;;;;;;;;5004821;28;91647;-79
2023/12/19 01:55:13;;;;;;;11.45;5.35;;;;;;;;;;5002002;28;93023;-78
2023/12/19 01:57:40;;;;;;;10.93;5.47;;;;;;;;;;5000873;28;92171;-79
2023/12/19 02:00:07;;;;;;;11.63;5.57;;;;;;;;;;4999516;27;94943;-79
2023/12/19 02:02:33;;;;;;;11.77;5.53;;;;;;;;;;5015467;28;94751;-79
2023/12/19 02:05:00;;;;;;;11.13;5.53;;;;;;;;;;5001988;27;92580;-80
2023/12/19 02:07:27;;;;;;;11.98;5.60;;;;;;;;;;5012847;28;93199;-80
2023/12/19 02:09:54;;;;;;;11.40;5.57;;;;;;;;;;5004808;28;92996;-80
2023/12/19 02:12:21;;;;;;;11.52;5.55;;;;;;;;;;5018294;28;92395;-80
2023/12/19 02:14:48;;;;;;;12.95;5.65;;;;;;;;;;5018780;27;92661;-80
2023/12/19 02:17:16;;;;;;;11.05;5.47;;;;;;;;;;5043599;27;91757;-80
2023/12/19 02:19:44;;;;;;;10.98;5.15;;;;;;;;;;5041355;28;93759;-79
2023/12/19 02:22:11;;;;;;;12.50;6.13;;;;;;;;;;5040598;27;93125;-79
2023/12/19 02:24:37;;;;;;;10.73;5.40;;;;;;;;;;5040913;27;94825;-79
2023/12/19 02:27:04;;;;;;;9.73;5.32;;;;;;;;;;5034535;28;94240;-80
2023/12/19 02:29:31;;;;;;;11.20;5.55;;;;;;;;;;5022199;28;92731;-80
2023/12/19 02:31:58;;;;;;;10.85;5.50;;;;;;;;;;5020235;28;92165;-80
2023/12/19 02:34:24;;;;;;;10.73;5.10;;;;;;;;;;4999897;28;99599;-78
2023/12/19 02:36:51;;;;;;;10.68;5.07;;;;;;;;;;5004861;28;92714;-80
2023/12/19 02:39:18;;;;;;;11.57;5.63;;;;;;;;;;4995293;28;92864;-79
2023/12/19 02:41:44;;;;;;;10.73;5.38;;;;;;;;;;5016941;28;92090;-79
2023/12/19 02:44:11;;;;;;;10.90;5.13;;;;;;;;;;5003198;28;92448;-80
2023/12/19 02:46:37;;;;;;;10.95;5.40;;;;;;;;;;5014554;28;92806;-79
2023/12/19 02:49:04;;;;;;;10.68;5.50;;;;;;;;;;4999205;28;101509;-80
2023/12/19 02:51:31;;;;;;;12.55;5.72;;;;;;;;;;5013986;28;92256;-81
2023/12/19 02:53:58;;;;;;;10.20;4.82;;;;;;;;;;4986300;28;95288;-80
2023/12/19 02:56:24;;;;;;;10.38;5.38;;;;;;;;;;5038940;27;97170;-80
2023/12/19 02:58:51;;;;;;;10.00;5.22;;;;;;;;;;5020407;28;92798;-80
2023/12/19 03:01:18;;;;;;;12.65;6.00;;;;;;;;;;5021118;28;92656;-80
2023/12/19 03:03:44;;;;;;;10.32;5.30;;;;;;;;;;5020134;28;92399;-80
2023/12/19 03:06:14;;;;;;;11.23;5.38;;;;;;;;;;5020292;28;92310;-80
2023/12/19 03:08:45;;;;;;;14.52;5.80;;;;;;;;;;5018897;28;95161;-79
2023/12/19 03:11:12;;;;;;;13.10;5.38;;;;;;;;;;5019859;28;92076;-80
2023/12/19 03:13:38;;;;;;;11.90;5.30;;;;;;;;;;5019333;28;94515;-80
2023/12/19 03:16:05;;;;;;;14.73;6.32;;;;;;;;;;5020820;28;92732;-81
2023/12/19 03:18:32;;;;;;;13.40;6.22;;;;;;;;;;5024137;28;92193;-81
2023/12/19 03:20:58;;;;;;;11.73;5.85;;;;;;;;;;5020974;28;92655;-82
2023/12/19 03:23:27;;;;;;;11.43;5.40;;;;;;;;;;5019445;28;92630;-80
2023/12/19 03:25:53;;;;;;;12.38;6.00;;;;;;;;;;5019833;28;92770;-80
2023/12/19 03:28:20;;;;;;;12.68;6.03;;;;;;;;;;5019710;27;93227;-80
2023/12/19 03:30:46;;;;;;;11.52;5.72;;;;;;;;;;5021962;28;92182;-80
2023/12/19 03:33:14;;;;;;;9.73;5.30;;;;;;;;;;5009124;28;91999;-80
2023/12/19 03:35:40;;;;;;;11.82;5.38;;;;;;;;;;5012929;28;93982;-80
2023/12/19 03:38:07;;;;;;;11.77;5.75;;;;;;;;;;5001220;27;94880;-79
2023/12/19 03:40:35;;;;;;;11.65;6.25;;;;;;;;;;5002303;28;99421;-80
2023/12/19 03:43:03;;;;;;;11.80;5.47;;;;;;;;;;4984684;28;92094;-80
2023/12/19 03:45:29;;;;;;;11.20;5.90;;;;;;;;;;5009904;28;94780;-81
2023/12/19 03:47:56;;;;;;;9.77;5.45;;;;;;;;;;5019704;28;93130;-80
2023/12/19 03:50:23;;;;;;;12.63;5.68;;;;;;;;;;5002339;28;92493;-80
2023/12/19 03:52:49;;;;;;;12.18;5.93;;;;;;;;;;5010250;28;92803;-81
2023/12/19 03:55:16;;;;;;;10.85;5.47;;;;;;;;;;5023096;28;93996;-81
2023/12/19 03:57:42;;;;;;;10.32;5.63;;;;;;;;;;5050563;27;92255;-81
2023/12/19 04:00:09;;;;;;;12.45;5.53;;;;;;;;;;5007501;27;92434;-81
2023/12/19 04:02:36;;;;;;;11.85;5.38;;;;;;;;;;5001997;28;95148;-81
2023/12/19 04:05:03;;;;;;;11.95;5.55;;;;;;;;;;4984957;28;94778;-81
2023/12/19 04:07:31;;;;;;;10.77;5.65;;;;;;;;;;5016572;28;92971;-81
2023/12/19 04:09:57;;;;;;;;;;;;;;;;;;5006915;28;92372;-80
2023/12/19 04:12:25;;;;;;;11.00;5.57;;;;;;;;;;5020882;28;112666;-80
2023/12/19 04:14:51;;;;;;;11.32;5.35;;;;;;;;;;5001967;28;94145;-79
2023/12/19 04:17:18;;;;;;;12.15;5.57;;;;;;;;;;5014281;28;92123;-80
2023/12/19 04:19:44;;;;;;;10.32;5.38;;;;;;;;;;5010013;28;92451;-80
2023/12/19 04:22:11;;;;;;;13.23;4.90;;;;;;;;;;5004522;28;92830;-80
2023/12/19 04:24:39;;;;;;;9.50;4.78;;;;;;;;;;5025291;28;92185;-81
2023/12/19 04:27:05;;;;;;;9.90;4.78;;;;;;;;;;5037302;28;95081;-80
2023/12/19 04:29:32;;;;;;;10.48;4.63;;;;;;;;;;5038678;28;92168;-80
2023/12/19 04:31:58;;;;;;;9.73;4.82;;;;;;;;;;5028305;27;95143;-80
2023/12/19 04:34:25;;;;;;;10.93;4.95;;;;;;;;;;5020127;27;97068;-81
2023/12/19 04:36:52;;;;;;;9.93;4.90;;;;;;;;;;5003474;28;92236;-80
2023/12/19 04:39:18;;;;;;;9.93;4.63;;;;;;;;;;5001452;28;95059;-80
2023/12/19 04:41:45;;;;;;;11.32;4.80;;;;;;;;;;5002050;28;93483;-79
2023/12/19 04:44:11;;;;;;;10.32;4.97;;;;;;;;;;5019715;28;91953;-80
2023/12/19 04:46:41;;;;;;;10.95;5.30;;;;;;;;;;5006197;28;92472;-79
2023/12/19 04:49:07;;;;;;;9.55;4.88;;;;;;;;;;5012065;28;92293;-80
2023/12/19 04:51:34;;;;;;;9.50;5.10;;;;;;;;;;4990259;28;95089;-80
2023/12/19 04:54:03;;;;;;;8.73;4.70;;;;;;;;;;5017236;28;93777;-80
2023/12/19 04:56:29;;;;;;;10.48;5.20;;;;;;;;;;5002633;28;92104;-80
2023/12/19 04:58:55;;;;;;;10.35;5.32;;;;;;;;;;5011177;28;92859;-80
2023/12/19 05:01:22;;;;;;;9.43;5.22;;;;;;;;;;5011362;28;93093;-79
2023/12/19 05:03:49;;;;;;;9.98;4.80;;;;;;;;;;5002754;28;92534;-80
2023/12/19 05:06:17;;;;;;;9.43;4.88;;;;;;;;;;5004810;28;92203;-80
2023/12/19 05:08:45;;;;;;;10.48;4.63;;;;;;;;;;5002748;28;91604;-79
2023/12/19 05:11:12;;;;;;;9.93;4.72;;;;;;;;;;5003148;28;92462;-79
2023/12/19 05:13:38;;;;;;;9.23;4.60;;;;;;;;;;5002292;28;92702;-80
2023/12/19 05:16:14;;;;;;;9.07;4.55;;;;;;;;;;5000224;28;94657;-79
2023/12/19 05:18:42;;;;;;;8.68;4.53;;;;;;;;;;5002838;28;95120;-79
2023/12/19 05:21:09;;;;;;;8.75;4.30;;;;;;;;;;5000635;28;99850;-80
2023/12/19 05:23:36;;;;;;;8.15;4.07;;;;;;;;;;5003140;28;92877;-79
2023/12/19 05:26:03;;;;;;;8.75;4.05;;;;;;;;;;5000258;28;95189;-79
2023/12/19 05:28:30;;;;;;;8.43;3.95;;;;;;;;;;5004324;28;93286;-79
2023/12/19 05:30:57;;;;;;;8.07;3.88;;;;;;;;;;5001644;28;92307;-79
2023/12/19 05:33:24;;;;;;;8.45;4.18;;;;;;;;;;5014726;28;91976;-80
2023/12/19 05:35:51;;;;;;;8.20;4.03;;;;;;;;;;4989430;28;92064;-78
2023/12/19 05:38:18;;;;;;;8.10;3.85;;;;;;;;;;4999687;28;95407;-78
2023/12/19 05:40:45;;;;;;;7.30;3.65;;;;;;;;;;5000532;28;95129;-79
2023/12/19 05:43:14;;;;;;;7.32;3.78;;;;;;;;;;5000329;28;92336;-79
2023/12/19 05:45:41;;;;;;;8.02;3.72;;;;;;;;;;5016542;28;92501;-80
2023/12/19 05:48:08;;;;;;;7.93;3.70;;;;;;;;;;5004753;28;92721;-79
2023/12/19 05:50:34;;;;;;;7.78;3.95;;;;;;;;;;5041432;28;92096;-79
2023/12/19 05:53:01;;;;;;;7.32;3.35;;;;;;;;;;5023060;27;92720;-80
2023/12/19 05:55:27;;;;;;;7.35;3.40;;;;;;;;;;5009061;28;92099;-80
2023/12/19 05:57:54;;;;;;;8.63;3.60;;;;;;;;;;5016605;28;94819;-80
2023/12/19 06:00:21;;;;;;;7.97;3.67;;;;;;;;;;5002260;28;93298;-80
2023/12/19 06:02:50;;;;;;;7.13;3.50;;;;;;;;;;5008675;28;92276;-79
2023/12/19 06:05:17;;;;;;;7.22;3.50;;;;;;;;;;5017774;28;94721;-78
2023/12/19 06:07:44;;;;;;;7.40;3.70;;;;;;;;;;5021100;28;92695;-81
2023/12/19 06:10:11;;;;;;;7.28;3.25;;;;;;;;;;5021149;28;92172;-80
2023/12/19 06:12:38;;;;;;;5.60;2.90;;;;;;;;;;5019024;27;92520;-81
2023/12/19 06:15:11;;;;;;;7.15;3.50;;;;;;;;;;5001851;28;92167;-81
2023/12/19 06:17:42;;;;;;;7.43;3.22;;;;;;;;;;5000489;28;92778;-80
2023/12/19 06:20:10;;;;;;;7.03;3.47;;;;;;;;;;4998907;28;92606;-81
2023/12/19 06:22:37;;;;;;;7.80;3.35;;;;;;;;;;5000687;28;91592;-80
2023/12/19 06:25:04;;;;;;;7.28;3.53;;;;;;;;;;4992057;28;94143;-80
2023/12/19 06:27:32;;;;;;;7.50;3.70;;;;;;;;;;5002792;28;92728;-79
2023/12/19 06:29:58;;;;;;;6.75;3.28;;;;;;;;;;4999238;28;95223;-80
2023/12/19 06:32:36;;;;;;;7.40;3.03;;;;;;;;;;5016140;28;99638;-80
2023/12/19 06:35:05;;;;;;;7.55;3.25;;;;;;;;;;5004227;28;93192;-80
2023/12/19 06:37:32;;;;;;;7.43;3.42;;;;;;;;;;4980321;28;95117;-80
2023/12/19 06:39:58;;;;;;;6.68;3.30;;;;;;;;;;4999327;28;92886;-80
2023/12/19 06:42:25;;;;;;;6.40;3.15;;;;;;;;;;5001611;28;92563;-80
2023/12/19 06:44:52;;;;;;;7.18;3.22;;;;;;;;;;5009368;28;92343;-80
2023/12/19 06:47:18;;;;;;;6.75;3.22;;;;;;;;;;5011003;27;92351;-80
2023/12/19 06:49:45;;;;;;;6.88;3.30;;;;;;;;;;5016941;28;92237;-79
2023/12/19 06:52:12;;;;;;;7.72;3.05;;;;;;;;;;5036289;27;92493;-80
2023/12/19 06:54:39;;;;;;;7.65;3.50;;;;;;;;;;5013558;28;95215;-80
2023/12/19 06:57:05;;;;;;;6.53;2.88;;;;;;;;;;5013682;28;92011;-79
2023/12/19 06:59:35;;;;;;;6.70;3.10;;;;;;;;;;5007158;28;95081;-80
2023/12/19 07:02:01;;;;;;;5.90;3.17;;;;;;;;;;5017650;28;92420;-79
2023/12/19 07:04:28;;;;;;;7.88;3.70;;;;;;;;;;5005194;28;92643;-80
2023/12/19 07:06:56;;;;;;;6.18;2.80;;;;;;;;;;4994967;28;95513;-81
2023/12/19 07:09:22;;;;;;;6.90;3.45;;;;;;;;;;4997342;28;91980;-80
2023/12/19 07:11:49;;;;;;;7.28;3.55;;;;;;;;;;4986938;28;92461;-80
2023/12/19 07:14:16;;;;;;;7.65;3.30;;;;;;;;;;4996395;28;93039;-81
2023/12/19 07:16:43;;;;;;;7.25;3.15;;;;;;;;;;4990591;28;92052;-79
2023/12/19 07:19:10;;;;;;;7.55;3.28;;;;;;;;;;4989329;28;95674;-79
2023/12/19 07:21:36;;;;;;;9.55;3.72;;;;;;;;;;4992709;28;92371;-80
2023/12/19 07:24:03;;;;;;;8.23;3.47;;;;;;;;;;4996952;28;92453;-79
2023/12/19 07:26:30;;;;;;;6.85;3.30;;;;;;;;;;4980811;28;93178;-79
2023/12/19 07:28:57;;;;;;;9.38;3.67;;;;;;;;;;4988815;28;92227;-79
2023/12/19 07:31:24;;;;;;;6.55;3.10;;;;;;;;;;5008464;28;92470;-78
2023/12/19 07:33:51;;;;;;;;;;;;;;;;;;4996218;28;95083;-79
2023/12/19 07:36:18;;;;;;;11.93;3.38;;;;;;;;;;4998870;28;91875;-79
2023/12/19 07:38:44;;;;;;;12.50;3.25;;;;;;;;;;5008521;28;93584;-79
2023/12/19 07:41:11;;;;;;;7.80;3.25;;;;;;;;;;5018947;28;92164;-79
2023/12/19 07:43:37;;;;;;;7.28;3.17;;;;;;;;;;5019036;28;94395;-79
2023/12/19 07:46:07;;;;;;;8.48;3.13;;;;;;;;;;5019780;27;93018;-80
2023/12/19 07:48:33;;;;;;;7.00;3.03;;;;;;;;;;5018491;28;92449;-80
2023/12/19 07:51:00;;;;;;;8.75;3.20;;;;;;;;;;5016379;28;93264;-79
2023/12/19 07:53:27;;;;;;;9.25;3.40;;;;;;;;;;5017397;28;92772;-79
2023/12/19 07:55:55;;;;;;;9.98;3.72;;;;;;;;;;4985936;28;92250;-80
2023/12/19 07:58:23;;;;;;;9.55;3.78;;;;;;;;;;4999539;27;92485;-78
2023/12/19 08:00:50;;;;;;;6.93;3.35;;;;;;;;;;5003584;27;91724;-79
2023/12/19 08:03:18;;;;;;;7.68;3.28;;;;;;;;;;4999069;28;92373;-79
2023/12/19 08:05:50;;;;;;;7.05;2.90;;;;;;;;;;5000094;27;92739;-82
2023/12/19 08:08:17;;;;;;;6.97;2.92;;;;;;;;;;4996375;27;94557;-79
2023/12/19 08:10:45;;;;;;;6.85;3.08;;;;;;;;;;4995907;28;97085;-79
2023/12/19 08:13:12;;;;;;;8.98;3.17;;;;;;;;;;4990234;28;92743;-79
2023/12/19 08:15:41;;;;;;;6.82;2.90;;;;;;;;;;4996030;28;92031;-79
2023/12/19 08:18:08;;;;;;;6.93;2.97;;;;;;;;;;4997611;28;95421;-79
2023/12/19 08:20:35;;;;;;;6.78;2.60;;;;;;;;;;4996662;28;92667;-79
2023/12/19 08:23:02;;;;;;;;;;;;;;;;;;5000129;28;92586;-79
2023/12/19 08:25:29;;;;;;;6.85;2.92;;;;;;;;;;4991897;28;91990;-79
2023/12/19 08:27:55;;;;;;;6.32;3.10;;;;;;;;;;4995722;28;92729;-79
2023/12/19 08:30:26;;;;;;;6.70;3.22;;;;;;;;;;4997036;28;92778;-78
2023/12/19 08:32:54;;;;;;;6.53;3.20;;;;;;;;;;4996734;28;95022;-78
2023/12/19 08:35:21;;;;;;;5.82;2.90;;;;;;;;;;4984192;28;92342;-79
2023/12/19 08:37:48;;;;;;;8.00;3.30;;;;;;;;;;4995155;28;92722;-79
2023/12/19 08:40:15;;;;;;;;;;;;;;;;;;5019392;27;92791;-79
2023/12/19 08:42:41;;;;;;;5.78;2.67;;;;;;;;;;4993637;28;96153;-79
2023/12/19 08:45:15;;;;;;;5.65;2.50;;;;;;;;;;4989084;28;92366;-79
2023/12/19 08:47:42;;;;;;;;;;;;;;;;;;5001165;28;94037;-79
2023/12/19 08:50:10;;;;;;;7.65;3.67;;;;;;;;;;4999657;28;93987;-79
2023/12/19 08:52:37;;;;;;;5.97;2.78;;;;;;;;;;5001490;28;93016;-79
2023/12/19 08:55:04;;;;;;;;;;;;;;;;;;5001494;28;92040;-79
2023/12/19 08:57:31;;;;;;;6.22;3.05;;;;;;;;;;5002802;28;95591;-79
2023/12/19 08:59:58;;;;;;;6.28;3.00;;;;;;;;;;5000378;28;95920;-78
2023/12/19 09:02:24;;;;;;;6.35;3.08;;;;;;;;;;5020338;27;92942;-79
2023/12/19 09:04:51;;;;;;;7.03;3.20;;;;;;;;;;5019112;27;95434;-81
2023/12/19 09:07:21;;;;;;;5.90;2.63;;;;;;;;;;5021297;27;92594;-80
2023/12/19 09:09:47;;;;;;;7.15;3.10;;;;;;;;;;5003991;28;95055;-79
2023/12/19 09:12:14;;;;;;;5.68;2.70;;;;;;;;;;5017183;27;94945;-79
2023/12/19 09:14:40;;;;;;;6.82;3.00;;;;;;;;;;5011863;28;91597;-79
2023/12/19 09:17:07;;;;;;;6.97;2.58;;;;;;;;;;5040765;28;92508;-79
2023/12/19 09:19:37;;;;;;;6.22;2.70;;;;;;;;;;5035536;27;93608;-79
2023/12/19 09:22:04;;;;;;;5.82;2.83;;;;;;;;;;5019128;27;94510;-79
2023/12/19 09:24:31;;;;;;;4.70;2.33;;;;;;;;;;5017301;27;94778;-79
2023/12/19 09:26:57;;;;;;;5.85;2.67;;;;;;;;;;5003031;28;94901;-79
2023/12/19 09:29:27;;;;;;;6.57;2.90;;;;;;;;;;5001302;28;92463;-78
2023/12/19 09:31:54;;;;;;;5.50;2.80;;;;;;;;;;5000710;28;93032;-78
2023/12/19 09:34:20;;;;;;;5.95;2.70;;;;;;;;;;4994211;28;92675;-80
2023/12/19 09:36:47;;;;;;;7.10;2.65;;;;;;;;;;5009837;28;92489;-78
2023/12/19 09:39:23;;;;;;;5.40;2.28;;;;;;;;;;4997873;28;92106;-78
2023/12/19 09:41:50;;;;;;;5.63;2.60;;;;;;;;;;4985355;28;92578;-78
2023/12/19 09:44:17;;;;;;;5.53;2.63;;;;;;;;;;4997608;28;92750;-78
2023/12/19 09:46:52;;;;;;;5.22;2.30;;;;;;;;;;4997896;28;97815;-78
2023/12/19 09:49:20;;;;;;;5.78;2.40;;;;;;;;;;5003940;27;92360;-79
2023/12/19 09:51:49;;;;;;;5.70;2.58;;;;;;;;;;4998652;28;92858;-78
2023/12/19 09:54:15;;;;;;;6.30;2.83;;;;;;;;;;5000182;27;92352;-79
2023/12/19 09:56:42;;;;;;;7.90;2.95;;;;;;;;;;5000498;28;92340;-78
2023/12/19 09:59:10;;;;;;;5.90;2.47;;;;;;;;;;4984715;28;93785;-78
2023/12/19 10:01:38;;;;;;;6.60;2.65;;;;;;;;;;4980594;28;92108;-78
2023/12/19 10:04:13;;;;;;;5.55;2.80;;;;;;;;;;4993900;28;92619;-78
2023/12/19 10:06:41;;;;;;;6.03;2.50;;;;;;;;;;4985524;28;94750;-78
2023/12/19 10:09:17;;;;;;;6.53;2.70;;;;;;;;;;4990916;28;92559;-78
2023/12/19 10:11:44;;;;;;;5.90;2.47;;;;;;;;;;5012844;28;94750;-79
2023/12/19 10:14:11;;;;;;;5.30;2.53;;;;;;;;;;5001794;27;92352;-78
2023/12/19 10:16:40;;;;;;;5.88;2.80;;;;;;;;;;5000716;28;92660;-79
2023/12/19 10:19:11;;;;;;;5.28;2.42;;;;;;;;;;5000136;28;92716;-78
2023/12/19 10:21:38;;;;;;;5.55;2.50;;;;;;;;;;4999971;28;92548;-79
2023/12/19 10:24:09;;;;;;;4.65;2.17;;;;;;;;;;5016106;27;93723;-79
2023/12/19 10:26:36;;;;;;;3.92;2.00;;;;;;;;;;5015275;28;93773;-79
2023/12/19 10:29:02;;;;;;;4.85;2.33;;;;;;;;;;4999030;28;91632;-79
2023/12/19 10:31:29;;;;;;;5.53;2.40;;;;;;;;;;5000083;28;94144;-79
2023/12/19 10:33:56;;;;;;;4.60;2.20;;;;;;;;;;5001204;28;93554;-79
2023/12/19 10:36:23;;;;;;;4.20;2.00;;;;;;;;;;5016559;27;94506;-79
2023/12/19 10:38:51;;;;;;;5.53;2.28;;;;;;;;;;5017762;27;94875;-78
2023/12/19 10:41:22;;;;;;;5.07;2.38;;;;;;;;;;5018177;28;93080;-78
2023/12/19 10:43:49;;;;;;;5.22;2.42;;;;;;;;;;5006364;28;95469;-78
2023/12/19 10:46:18;;;;;;;5.68;2.40;;;;;;;;;;4999456;28;92690;-79
2023/12/19 10:48:45;;;;;;;5.18;2.30;;;;;;;;;;5011006;27;92299;-77
2023/12/19 10:51:14;;;;;;;4.35;2.10;;;;;;;;;;5020333;27;92763;-78
2023/12/19 10:53:48;;;;;;;5.63;2.20;;;;;;;;;;5017745;28;92164;-78
2023/12/19 10:56:20;;;;;;;4.80;2.30;;;;;;;;;;5019879;28;92779;-79
2023/12/19 10:58:48;;;;;;;4.72;2.20;;;;;;;;;;5001466;28;93488;-79
2023/12/19 11:01:16;;;;;;;4.63;2.00;;;;;;;;;;4997090;28;94652;-79
2023/12/19 11:03:49;;;;;;;6.82;2.13;;;;;;;;;;4998818;28;94743;-79
2023/12/19 11:06:17;;;;;;;6.03;2.15;;;;;;;;;;4996615;28;94618;-79
2023/12/19 11:08:47;;;;;;;6.10;2.30;;;;;;;;;;5015977;27;92236;-79
2023/12/19 11:11:19;;;;;;;4.82;2.30;;;;;;;;;;5018608;27;92451;-78
2023/12/19 11:13:47;;;;;;;5.03;2.03;;;;;;;;;;5034259;28;95319;-77
2023/12/19 11:16:42;;;;;;;5.25;2.30;;;;;;;;;;5020842;28;92611;-78
2023/12/19 11:19:12;;;;;;;4.00;1.90;;;;;;;;;;5024570;28;94316;-77
2023/12/19 11:21:51;;;;;;;4.50;2.10;;;;;;;;;;5016747;28;92492;-79
2023/12/19 11:24:28;;;;;;;4.80;2.28;;;;;;;;;;5015109;28;95551;-79
2023/12/19 11:27:07;;;;;;;4.78;2.05;;;;;;;;;;5013957;28;97516;-79
2023/12/19 11:29:46;;;;;;;3.97;1.90;;;;;;;;;;5017506;28;92530;-79
2023/12/19 11:32:31;;;;;;;3.97;2.03;;;;;;;;;;5016036;28;93242;-79
2023/12/19 11:35:11;;;;;;;4.63;2.15;;;;;;;;;;5028694;28;92777;-79
2023/12/19 11:37:39;;;;;;;4.82;1.92;;;;;;;;;;5018530;27;92328;-81
2023/12/19 11:40:06;;;;;;;4.78;2.17;;;;;;;;;;5011864;27;92710;-79
2023/12/19 11:42:38;;;;;;;4.50;2.10;;;;;;;;;;5018588;27;92273;-78
2023/12/19 11:45:18;;;;;;;3.95;1.75;;;;;;;;;;5016929;28;95723;-79
2023/12/19 11:47:45;;;;;;;4.20;1.88;;;;;;;;;;5018773;28;92796;-79
2023/12/19 11:50:32;;;;;;;3.80;1.85;;;;;;;;;;5015976;27;92351;-78
2023/12/19 11:52:59;;;;;;;4.63;1.92;;;;;;;;;;5030667;28;94907;-78
2023/12/19 11:55:25;;;;;;;4.72;2.00;;;;;;;;;;5007885;27;93122;-78
2023/12/19 11:57:52;;;;;;;3.17;1.70;;;;;;;;;;5003538;28;92893;-78
2023/12/19 12:00:28;;;;;;;3.83;1.90;;;;;;;;;;5002294;28;97210;-78
2023/12/19 12:02:54;;;;;;;6.10;1.88;;;;;;;;;;5020725;27;93501;-78
2023/12/19 12:05:21;;;;;;;4.88;2.00;;;;;;;;;;4998608;27;92400;-79
2023/12/19 12:07:50;;;;;;;4.13;1.77;;;;;;;;;;4964921;28;95343;-78
2023/12/19 12:10:22;;;;;;;5.00;1.75;;;;;;;;;;4981417;28;91473;-79
2023/12/19 12:12:49;;;;;;;;;;;;;;;;;;4991616;28;92441;-79
2023/12/19 12:15:19;;;;;;;3.53;1.67;;;;;;;;;;5002620;28;94887;-78
2023/12/19 12:17:45;;;;;;;3.78;1.70;;;;;;;;;;5000966;28;94643;-80
2023/12/19 12:20:13;;;;;;;3.72;1.80;;;;;;;;;;5000489;28;97691;-78
2023/12/19 12:22:40;;;;;;;3.20;1.70;;;;;;;;;;5002458;28;93748;-79
2023/12/19 12:25:07;;;;;;;2.75;1.48;;;;;;;;;;5005973;28;92418;-78
2023/12/19 12:27:33;;;;;;;2.67;1.60;;;;;;;;;;5002166;28;92477;-78
2023/12/19 12:30:00;;;;;;;2.42;1.45;;;;;;;;;;5002118;28;92294;-79
2023/12/19 12:32:27;;;;;;;2.75;1.50;;;;;;;;;;5000601;28;95093;-78
2023/12/19 12:34:54;;;;;;;;;;;;;;;;;;4984859;28;94506;-78
2023/12/19 12:37:21;;;;;;;3.38;1.50;;;;;;;;;;5002364;28;103136;-81
2023/12/19 12:39:52;;;;;;;4.15;1.55;;;;;;;;;;5000666;28;93408;-77
2023/12/19 12:42:23;;;;;;;2.92;1.55;;;;;;;;;;4998009;28;97282;-78
2023/12/19 12:44:58;;;;;;;2.67;1.50;;;;;;;;;;5002365;28;92675;-79
2023/12/19 12:47:24;;;;;;;2.03;1.30;;;;;;;;;;5004743;28;92654;-78
2023/12/19 12:50:01;;;;;;;2.90;1.42;;;;;;;;;;5000954;28;92817;-79
2023/12/19 12:52:28;;;;;;;2.30;1.30;;;;;;;;;;5000488;28;99265;-79
2023/12/19 12:55:01;;;;;;;2.17;1.42;;;;;;;;;;5009457;28;96684;-78
2023/12/19 12:57:30;;;;;;;2.63;1.45;;;;;;;;;;5008357;28;92442;-79
2023/12/19 12:59:57;;;;;;;2.67;1.30;;;;;;;;;;4995817;28;92804;-78
2023/12/19 13:02:24;;;;;;;3.08;1.20;;;;;;;;;;4999755;28;93114;-79
2023/12/19 13:04:51;;;;;;;3.10;1.40;;;;;;;;;;4984408;28;92165;-78
2023/12/19 13:07:17;;;;;;;3.35;1.33;;;;;;;;;;4999553;28;94582;-80
2023/12/19 13:09:44;;;;;;;3.38;1.27;;;;;;;;;;5004628;27;92470;-79
2023/12/19 13:12:11;;;;;;;2.30;1.23;;;;;;;;;;4999725;28;94655;-80
2023/12/19 13:14:37;;;;;;;3.53;1.33;;;;;;;;;;5005068;28;94457;-78
2023/12/19 13:17:04;;;;;;;2.63;1.27;;;;;;;;;;5021091;27;92370;-78
2023/12/19 13:19:31;;;;;;;3.15;1.35;;;;;;;;;;5022336;27;92645;-79
2023/12/19 13:21:57;;;;;;;5.25;1.30;;;;;;;;;;5021578;28;93481;-79
2023/12/19 13:24:24;;;;;;;2.80;1.15;;;;;;;;;;5002957;28;91776;-76
2023/12/19 13:26:51;;;;;;;2.45;1.30;;;;;;;;;;5016413;27;92101;-78
2023/12/19 13:29:17;;;;;;;2.10;1.30;;;;;;;;;;5004601;28;92891;-79
2023/12/19 13:31:44;;;;;;;1.98;1.20;;;;;;;;;;5012764;28;95160;-77
2023/12/19 13:34:11;;;;;;;3.33;1.30;;;;;;;;;;5001542;28;93065;-77
2023/12/19 13:36:38;;;;;;;2.65;1.27;;;;;;;;;;5005593;28;92721;-78
2023/12/19 13:39:11;;;;;;;2.97;1.27;;;;;;;;;;5011035;28;92432;-79
2023/12/19 13:41:38;;;;;;;2.42;1.20;;;;;;;;;;4983456;28;94654;-78
2023/12/19 13:44:05;;;;;;;2.78;1.40;;;;;;;;;;5002269;28;92738;-78
2023/12/19 13:46:32;;;;;;;;;;;;;;;;;;5017713;27;93619;-78
2023/12/19 13:48:59;;;;;;;3.58;1.38;;;;;;;;;;5011779;28;95839;-80
2023/12/19 13:51:26;;;;;;;3.00;1.30;;;;;;;;;;5040505;27;92591;-78
2023/12/19 13:53:52;;;;;;;3.30;1.45;;;;;;;;;;5019987;28;94418;-79
2023/12/19 13:56:19;;;;;;;7.35;2.00;;;;;;;;;;5031254;27;94565;-78
2023/12/19 13:58:46;;;;;;;4.07;1.50;;;;;;;;;;5001829;28;95116;-78
2023/12/19 14:01:13;;;;;;;5.82;1.60;;;;;;;;;;4983222;28;95283;-78
2023/12/19 14:03:40;;;;;;;5.20;1.70;;;;;;;;;;5001392;28;92038;-77
2023/12/19 14:06:07;;;;;;;9.18;1.80;;;;;;;;;;5001391;28;92288;-78
2023/12/19 14:08:43;;;;;;;5.07;1.30;;;;;;;;;;5019342;28;94966;-77
2023/12/19 14:11:10;;;;;;;2.97;1.40;;;;;;;;;;5012433;28;92390;-77
2023/12/19 14:13:37;;;;;;;6.40;1.50;;;;;;;;;;4998300;28;95351;-76
2023/12/19 14:16:04;;;;;;;;;;;;;;;;;;5002768;28;92145;-78
2023/12/19 14:18:31;;;;;;;4.22;1.52;;;;;;;;;;5007737;27;104977;-77
2023/12/19 14:20:57;;;;;;;4.65;1.60;;;;;;;;;;5011691;27;95153;-78
2023/12/19 14:23:24;;;;;;;5.25;1.50;;;;;;;;;;5000257;28;92631;-78
2023/12/19 14:25:50;;;;;;;4.20;1.40;;;;;;;;;;4996445;28;92305;-78
2023/12/19 14:28:17;;;;;;;4.10;1.30;;;;;;;;;;4976511;28;95280;-78
2023/12/19 14:30:44;;;;;;;4.03;1.30;;;;;;;;;;5009036;27;92079;-78
2023/12/19 14:33:12;;;;;;;3.45;1.30;;;;;;;;;;5019481;28;95392;-78
2023/12/19 14:35:39;;;;;;;5.18;1.45;;;;;;;;;;4991972;28;95135;-76
2023/12/19 14:38:06;;;;;;;3.80;1.33;;;;;;;;;;5000855;28;92575;-78
2023/12/19 14:40:33;;;;;;;4.18;1.50;;;;;;;;;;4999527;28;93127;-76
2023/12/19 14:43:00;;;;;;;2.30;1.25;;;;;;;;;;5001621;27;92448;-77
2023/12/19 14:45:27;;;;;;;4.85;1.42;;;;;;;;;;5023200;28;94984;-77
2023/12/19 14:47:54;;;;;;;3.88;1.38;;;;;;;;;;4999535;28;92739;-77